createdAt,value
2019-04-07T00:00:51.904Z,94.10
2019-04-07T00:01:57.330Z,94.20
2019-04-07T00:03:02.614Z,94.30
2019-04-07T00:04:07.774Z,94.50
2019-04-07T00:05:14.651Z,94.60
2019-04-07T00:06:20.263Z,94.80
2019-04-07T00:07:25.420Z,94.80
2019-04-07T00:08:32.923Z,94.80
2019-04-07T00:09:39.988Z,94.70
2019-04-07T00:10:45.324Z,94.90
2019-04-07T00:11:50.767Z,94.70
2019-04-07T00:12:56.225Z,94.70
2019-04-07T00:14:01.397Z,94.60
2019-04-07T00:15:07.285Z,94.60
2019-04-07T00:16:12.571Z,94.60
2019-04-07T00:17:17.923Z,94.60
2019-04-07T00:18:23.229Z,94.60
2019-04-07T00:19:28.407Z,94.60
2019-04-07T00:20:33.584Z,94.50
2019-04-07T00:21:38.667Z,94.40
2019-04-07T00:22:45.303Z,94.40
2019-04-07T00:23:50.737Z,94.40
2019-04-07T00:24:56.225Z,94.50
2019-04-07T00:26:02.256Z,94.50
2019-04-07T00:27:07.469Z,94.60
2019-04-07T00:28:12.585Z,94.60
2019-04-07T00:29:17.687Z,94.70
2019-04-07T00:30:22.825Z,94.80
2019-04-07T00:31:27.940Z,94.70
2019-04-07T00:32:32.984Z,94.70
2019-04-07T00:33:38.078Z,94.60
2019-04-07T00:34:43.168Z,94.50
2019-04-07T00:35:48.396Z,94.40
2019-04-07T00:36:53.638Z,94.30
2019-04-07T00:37:59.450Z,94.30
2019-04-07T00:39:06.885Z,94.20
2019-04-07T00:40:13.068Z,94.20
2019-04-07T00:41:19.933Z,94.20
2019-04-07T00:42:25.876Z,94.30
2019-04-07T00:43:31.694Z,94.30
2019-04-07T00:44:36.948Z,94.20
2019-04-07T00:45:42.587Z,94.20
2019-04-07T00:46:47.979Z,94.20
2019-04-07T00:47:53.680Z,94.30
2019-04-07T00:48:59.516Z,94.30
2019-04-07T00:50:05.338Z,94.30
2019-04-07T00:51:10.474Z,94.40
2019-04-07T00:52:17.247Z,94.40
2019-04-07T00:53:22.375Z,94.30
2019-04-07T00:54:28.033Z,94.40
2019-04-07T00:55:33.446Z,94.50
2019-04-07T00:56:40.123Z,94.60
2019-04-07T00:57:45.636Z,94.80
2019-04-07T00:58:50.794Z,95.20
2019-04-07T00:59:56.117Z,95.60
2019-04-07T01:01:01.457Z,95.90
2019-04-07T01:02:06.965Z,96.20
2019-04-07T01:03:12.312Z,96.50
2019-04-07T01:04:17.681Z,96.40
2019-04-07T01:05:34.159Z,96.20
2019-04-07T01:06:29.896Z,96.20
2019-04-07T01:07:35.500Z,96.10
2019-04-07T01:08:42.514Z,96.10
2019-04-07T01:09:47.971Z,95.90
2019-04-07T01:10:53.354Z,95.90
2019-04-07T01:11:58.651Z,96.00
2019-04-07T01:13:04.416Z,96.10
2019-04-07T01:14:10.298Z,96.10
2019-04-07T01:15:17.643Z,96.10
2019-04-07T01:16:22.964Z,96.10
2019-04-07T01:17:28.512Z,96.10
2019-04-07T01:18:35.489Z,96.00
2019-04-07T01:19:40.970Z,95.90
2019-04-07T01:20:46.750Z,95.90
2019-04-07T01:21:51.940Z,95.90
2019-04-07T01:22:57.353Z,95.80
2019-04-07T01:24:02.640Z,95.70
2019-04-07T01:25:08.372Z,95.70
2019-04-07T01:26:14.154Z,95.70
2019-04-07T01:27:19.417Z,95.70
2019-04-07T01:28:26.243Z,95.60
2019-04-07T01:29:32.086Z,95.60
2019-04-07T01:30:37.844Z,95.60
2019-04-07T01:31:43.185Z,95.60
2019-04-07T01:32:48.344Z,95.70
2019-04-07T01:33:53.539Z,95.80
2019-04-07T01:34:59.628Z,95.70
2019-04-07T01:36:05.255Z,95.50
2019-04-07T01:37:10.905Z,95.40
2019-04-07T01:38:17.916Z,95.40
2019-04-07T01:39:23.169Z,95.40
2019-04-07T01:40:28.840Z,95.30
2019-04-07T01:41:39.065Z,95.20
2019-04-07T01:42:57.424Z,95.40
2019-04-07T01:44:21.653Z,95.80
2019-04-07T01:45:44.560Z,96.50
2019-04-07T01:47:14.662Z,97.20
2019-04-07T01:48:39.591Z,97.40
2019-04-07T01:49:53.923Z,97.50
2019-04-07T01:51:10.289Z,97.70
2019-04-07T01:52:34.843Z,97.50
2019-04-07T01:53:59.827Z,97.40
2019-04-07T01:55:36.363Z,97.30
2019-04-07T01:56:50.235Z,97.10
2019-04-07T01:58:20.215Z,97.10
2019-04-07T01:59:43.464Z,97.20
2019-04-07T02:01:06.567Z,97.20
2019-04-07T02:02:29.363Z,97.10
2019-04-07T02:03:46.308Z,97.10
2019-04-07T02:05:06.673Z,97.30
2019-04-07T02:06:31.120Z,97.50
2019-04-07T02:08:04.558Z,97.70
2019-04-07T02:09:22.607Z,97.70
2019-04-07T02:10:44.569Z,97.60
2019-04-07T02:12:07.288Z,97.50
2019-04-07T02:13:23.986Z,97.50
2019-04-07T02:14:44.497Z,97.50
2019-04-07T02:16:16.145Z,97.60
2019-04-07T02:17:39.406Z,97.50
2019-04-07T02:19:03.655Z,97.50
2019-04-07T02:20:38.914Z,97.60
2019-04-07T02:22:00.361Z,97.60
2019-04-07T02:23:33.929Z,97.60
2019-04-07T02:24:51.044Z,97.70
2019-04-07T02:26:10.318Z,97.70
2019-04-07T02:27:30.667Z,97.80
2019-04-07T02:28:54.861Z,97.80
2019-04-07T02:30:17.826Z,97.80
2019-04-07T02:31:31.925Z,97.70
2019-04-07T02:33:04.790Z,97.80
2019-04-07T02:34:32.028Z,97.80
2019-04-07T02:35:54.325Z,97.60
2019-04-07T02:37:22.555Z,97.50
2019-04-07T02:38:39.317Z,97.30
2019-04-07T02:40:04.866Z,97.10
2019-04-07T02:41:21.553Z,97.00
2019-04-07T02:43:03.797Z,96.90
2019-04-07T02:44:17.879Z,96.80
2019-04-07T02:45:41.214Z,96.70
2019-04-07T02:46:53.419Z,96.70
2019-04-07T02:48:12.404Z,96.70
2019-04-07T02:49:30.192Z,96.70
2019-04-07T02:50:50.920Z,96.70
2019-04-07T02:52:18.533Z,96.60
2019-04-07T02:53:48.569Z,96.50
2019-04-07T02:55:15.666Z,96.50
2019-04-07T02:56:55.935Z,96.40
2019-04-07T02:58:23.982Z,96.20
2019-04-07T02:59:42.963Z,96.10
2019-04-07T03:01:22.959Z,96.20
2019-04-07T03:02:34.698Z,96.20
2019-04-07T03:03:59.865Z,96.30
2019-04-07T03:05:22.281Z,96.20
2019-04-07T03:06:51.872Z,96.20
2019-04-07T03:08:30.521Z,96.40
2019-04-07T03:09:57.457Z,96.40
2019-04-07T03:11:16.394Z,96.60
2019-04-07T03:12:41.399Z,96.90
2019-04-07T03:13:52.218Z,97.10
2019-04-07T03:15:19.362Z,97.20
2019-04-07T03:16:43.812Z,97.40
2019-04-07T03:18:00.535Z,97.50
2019-04-07T03:19:26.406Z,97.50
2019-04-07T03:20:45.394Z,97.50
2019-04-07T03:22:12.713Z,97.40
2019-04-07T03:23:36.760Z,97.50
2019-04-07T03:25:08.074Z,97.40
2019-04-07T03:26:33.719Z,97.30
2019-04-07T03:27:51.572Z,97.20
2019-04-07T03:29:05.789Z,97.20
2019-04-07T03:30:38.656Z,97.30
2019-04-07T03:32:07.469Z,97.30
2019-04-07T03:33:37.729Z,97.20
2019-04-07T03:34:52.084Z,97.50
2019-04-07T03:36:05.763Z,97.60
2019-04-07T03:37:44.094Z,97.60
2019-04-07T03:39:15.779Z,97.80
2019-04-07T03:40:28.057Z,98.00
2019-04-07T03:41:42.389Z,98.00
2019-04-07T03:42:57.374Z,98.00
2019-04-07T03:44:20.387Z,98.10
2019-04-07T03:45:53.863Z,98.00
2019-04-07T03:47:24.414Z,97.60
2019-04-07T03:48:40.193Z,97.40
2019-04-07T03:50:03.462Z,97.40
2019-04-07T03:51:23.317Z,97.30
2019-04-07T03:52:54.386Z,97.20
2019-04-07T03:54:22.786Z,97.10
2019-04-07T03:55:43.800Z,97.10
2019-04-07T03:57:09.383Z,97.10
2019-04-07T03:58:34.311Z,97.10
2019-04-07T04:00:04.364Z,97.00
2019-04-07T04:01:35.497Z,97.00
2019-04-07T04:02:59.339Z,97.10
2019-04-07T04:04:22.353Z,97.40
2019-04-07T04:05:47.716Z,97.60
2019-04-07T04:07:27.540Z,97.70
2019-04-07T04:08:47.660Z,97.80
2019-04-07T04:10:30.525Z,97.60
2019-04-07T04:11:51.619Z,97.80
2019-04-07T04:13:05.044Z,97.60
2019-04-07T04:14:18.379Z,97.70
2019-04-07T04:15:31.286Z,97.70
2019-04-07T04:16:42.337Z,97.50
2019-04-07T04:17:48.148Z,97.40
2019-04-07T04:18:53.443Z,97.30
2019-04-07T04:19:58.657Z,97.30
2019-04-07T04:21:04.076Z,97.20
2019-04-07T04:22:09.182Z,97.20
2019-04-07T04:23:14.403Z,97.20
2019-04-07T04:24:19.942Z,97.20
2019-04-07T04:25:25.140Z,97.30
2019-04-07T04:26:30.730Z,97.20
2019-04-07T04:27:37.108Z,97.20
2019-04-07T04:28:42.995Z,97.20
2019-04-07T04:29:51.750Z,97.20
2019-04-07T04:30:56.548Z,97.20
2019-04-07T04:32:01.858Z,97.20
2019-04-07T04:33:06.998Z,97.20
2019-04-07T04:34:12.886Z,96.90
2019-04-07T04:35:17.926Z,96.60
2019-04-07T04:36:23.894Z,96.70
2019-04-07T04:37:40.333Z,97.00
2019-04-07T04:38:36.496Z,97.30
2019-04-07T04:39:41.699Z,97.60
2019-04-07T04:40:46.741Z,97.80
2019-04-07T04:41:52.038Z,98.00
2019-04-07T04:42:58.192Z,98.20
2019-04-07T04:44:03.897Z,98.20
2019-04-07T04:45:09.150Z,98.20
2019-04-07T04:46:15.089Z,98.20
2019-04-07T04:47:20.822Z,98.10
2019-04-07T04:48:26.031Z,98.00
2019-04-07T04:49:31.190Z,98.00
2019-04-07T04:50:37.249Z,98.00
2019-04-07T04:51:42.938Z,97.90
2019-04-07T04:52:48.748Z,97.80
2019-04-07T04:53:54.049Z,97.80
2019-04-07T04:54:59.208Z,97.80
2019-04-07T04:56:04.397Z,97.70
2019-04-07T04:57:09.501Z,97.50
2019-04-07T04:58:15.317Z,97.50
2019-04-07T04:59:21.533Z,97.50
2019-04-07T05:00:26.858Z,97.50
2019-04-07T05:01:33.111Z,97.60
2019-04-07T05:02:38.380Z,97.50
2019-04-07T05:03:44.580Z,97.40
2019-04-07T05:04:49.820Z,97.20
2019-04-07T05:05:55.396Z,97.20
2019-04-07T05:07:01.535Z,97.10
2019-04-07T05:08:06.956Z,97.40
2019-04-07T05:09:12.376Z,97.10
2019-04-07T05:10:17.600Z,97.10
2019-04-07T05:11:22.794Z,97.10
2019-04-07T05:12:28.634Z,97.10
2019-04-07T05:13:34.155Z,97.10
2019-04-07T05:14:41.206Z,97.00
2019-04-07T05:15:47.841Z,96.80
2019-04-07T05:16:53.575Z,96.60
2019-04-07T05:17:59.010Z,96.50
2019-04-07T05:19:04.459Z,96.50
2019-04-07T05:20:10.227Z,96.40
2019-04-07T05:21:16.176Z,96.20
2019-04-07T05:22:21.308Z,96.10
2019-04-07T05:23:26.501Z,95.90
2019-04-07T05:24:33.393Z,95.80
2019-04-07T05:25:39.094Z,95.60
2019-04-07T05:26:44.433Z,95.60
2019-04-07T05:27:49.475Z,95.60
2019-04-07T05:28:55.083Z,95.50
2019-04-07T05:30:00.171Z,95.50
2019-04-07T05:31:05.702Z,95.50
2019-04-07T05:32:11.074Z,95.60
2019-04-07T05:33:16.585Z,95.70
2019-04-07T05:34:22.433Z,95.70
2019-04-07T05:35:28.642Z,95.80
2019-04-07T05:36:33.831Z,95.80
2019-04-07T05:37:39.389Z,95.90
2019-04-07T05:38:44.650Z,96.10
2019-04-07T05:39:49.926Z,96.10
2019-04-07T05:40:55.343Z,96.00
2019-04-07T05:42:01.288Z,96.00
2019-04-07T05:43:07.127Z,95.80
2019-04-07T05:44:12.375Z,95.80
2019-04-07T05:45:17.468Z,95.70
2019-04-07T05:46:22.795Z,95.60
2019-04-07T05:47:28.053Z,95.50
2019-04-07T05:48:33.785Z,95.30
2019-04-07T05:49:39.068Z,95.20
2019-04-07T05:50:44.072Z,95.00
2019-04-07T05:51:49.093Z,94.90
2019-04-07T05:52:54.215Z,94.80
2019-04-07T05:53:59.360Z,94.50
2019-04-07T05:55:05.374Z,94.60
2019-04-07T05:56:11.078Z,94.50
2019-04-07T05:57:16.209Z,94.30
2019-04-07T05:58:21.361Z,94.30
2019-04-07T05:59:26.462Z,94.30
2019-04-07T06:00:31.600Z,94.20
2019-04-07T06:01:36.786Z,94.10
2019-04-07T06:02:41.973Z,94.00
2019-04-07T06:03:47.929Z,93.70
2019-04-07T06:04:53.490Z,93.40
2019-04-07T06:05:59.354Z,93.30
2019-04-07T06:07:04.647Z,93.10
2019-04-07T06:08:22.561Z,92.90
2019-04-07T06:09:19.742Z,92.80
2019-04-07T06:10:27.751Z,92.30
2019-04-07T06:11:34.029Z,92.30
2019-04-07T06:12:41.417Z,92.30
2019-04-07T06:13:45.576Z,92.20
2019-04-07T06:14:50.917Z,92.20
2019-04-07T06:15:56.520Z,92.10
2019-04-07T06:17:02.143Z,91.70
2019-04-07T06:18:07.460Z,91.20
2019-04-07T06:19:13.821Z,91.00
2019-04-07T06:20:19.144Z,90.50
2019-04-07T06:21:25.616Z,90.30
2019-04-07T06:22:31.330Z,89.90
2019-04-07T06:23:36.486Z,89.60
2019-04-07T06:24:41.709Z,89.20
2019-04-07T06:25:46.857Z,87.50
2019-04-07T06:26:53.760Z,85.00
2019-04-07T06:27:59.483Z,81.30
2019-04-07T06:29:04.859Z,77.70
2019-04-07T06:30:11.814Z,73.90
2019-04-07T06:31:18.454Z,70.30
2019-04-07T06:32:24.428Z,67.00
2019-04-07T06:33:29.744Z,65.20
2019-04-07T06:34:39.776Z,63.80
2019-04-07T06:35:45.080Z,61.90
2019-04-07T06:36:53.632Z,61.70
2019-04-07T06:37:58.641Z,60.90
2019-04-07T06:39:04.660Z,61.80
2019-04-07T06:40:10.040Z,62.10
2019-04-07T06:41:15.303Z,62.30
2019-04-07T06:42:20.857Z,62.00
2019-04-07T06:43:26.072Z,62.00
2019-04-07T06:44:31.245Z,62.20
2019-04-07T06:46:02.767Z,62.40
2019-04-07T06:47:17.614Z,62.70
2019-04-07T06:48:23.896Z,63.30
2019-04-07T06:49:48.195Z,64.40
2019-04-07T06:51:04.049Z,64.60
2019-04-07T06:52:18.437Z,64.90
2019-04-07T06:53:49.081Z,65.30
2019-04-07T06:55:30.055Z,66.30
2019-04-07T06:56:57.022Z,66.00
2019-04-07T06:58:19.930Z,65.20
2019-04-07T06:59:33.881Z,64.50
2019-04-07T07:01:03.084Z,64.30
2019-04-07T07:02:33.043Z,63.40
2019-04-07T07:04:08.622Z,63.20
2019-04-07T07:05:23.580Z,63.40
2019-04-07T07:06:48.332Z,63.60
2019-04-07T07:08:10.030Z,63.20
2019-04-07T07:09:51.948Z,62.40
2019-04-07T07:11:28.909Z,61.50
2019-04-07T07:12:52.624Z,60.70
2019-04-07T07:14:32.383Z,60.40
2019-04-07T07:15:40.003Z,60.20
2019-04-07T07:16:52.627Z,59.10
2019-04-07T07:18:29.479Z,58.90
2019-04-07T07:19:44.589Z,58.90
2019-04-07T07:21:08.857Z,57.90
2019-04-07T07:22:20.787Z,57.50
2019-04-07T07:23:30.948Z,55.80
2019-04-07T07:24:36.957Z,54.40
2019-04-07T07:25:42.125Z,53.60
2019-04-07T07:26:47.909Z,53.30
2019-04-07T07:27:53.431Z,52.70
2019-04-07T07:28:58.842Z,51.70
2019-04-07T07:30:04.648Z,50.50
2019-04-07T07:31:10.070Z,50.10
2019-04-07T07:32:15.924Z,51.10
2019-04-07T07:33:21.339Z,50.90
2019-04-07T07:34:27.257Z,49.80
2019-04-07T07:35:33.372Z,49.80
2019-04-07T07:36:38.648Z,49.80
2019-04-07T07:37:44.421Z,48.40
2019-04-07T07:38:58.300Z,47.70
2019-04-07T07:39:56.956Z,47.80
2019-04-07T07:41:03.425Z,48.40
2019-04-07T07:42:09.398Z,49.40
2019-04-07T07:43:14.795Z,50.10
2019-04-07T07:44:20.099Z,50.70
2019-04-07T07:45:25.303Z,50.20
2019-04-07T07:46:30.459Z,50.60
2019-04-07T07:47:36.283Z,51.30
2019-04-07T07:48:42.076Z,51.80
2019-04-07T07:49:48.210Z,52.40
2019-04-07T07:50:53.758Z,52.50
2019-04-07T07:51:59.282Z,51.80
2019-04-07T07:53:04.764Z,50.20
2019-04-07T07:54:10.030Z,49.00
2019-04-07T07:55:15.169Z,48.00
2019-04-07T07:56:20.245Z,47.20
2019-04-07T07:57:26.096Z,46.90
2019-04-07T07:58:33.315Z,46.60
2019-04-07T07:59:39.433Z,45.60
2019-04-07T08:00:45.989Z,45.80
2019-04-07T08:01:52.632Z,45.80
2019-04-07T08:02:59.189Z,45.80
2019-04-07T08:04:05.245Z,45.90
2019-04-07T08:05:11.439Z,45.90
2019-04-07T08:06:17.271Z,45.90
2019-04-07T08:07:22.564Z,45.10
2019-04-07T08:08:31.652Z,46.20
2019-04-07T08:09:56.766Z,46.50
2019-04-07T08:11:33.818Z,46.90
2019-04-07T08:12:51.943Z,47.30
2019-04-07T08:14:08.872Z,47.20
2019-04-07T08:15:30.939Z,47.10
2019-04-07T08:16:43.590Z,46.90
2019-04-07T08:18:08.726Z,46.80
2019-04-07T08:19:53.001Z,46.80
2019-04-07T08:21:12.300Z,46.70
2019-04-07T08:22:34.454Z,46.00
2019-04-07T08:23:47.117Z,44.80
2019-04-07T08:25:05.206Z,42.70
2019-04-07T08:26:24.341Z,40.70
2019-04-07T08:27:41.988Z,38.30
2019-04-07T08:28:59.067Z,38.80
2019-04-07T08:30:16.210Z,39.00
2019-04-07T08:31:33.759Z,40.10
2019-04-07T08:32:51.162Z,39.30
2019-04-07T08:34:08.871Z,38.00
2019-04-07T08:35:25.608Z,38.10
2019-04-07T08:36:44.481Z,37.00
2019-04-07T08:38:01.512Z,35.90
2019-04-07T08:39:22.921Z,36.20
2019-04-07T08:40:38.158Z,35.40
2019-04-07T08:41:55.049Z,34.80
2019-04-07T08:43:11.526Z,34.20
2019-04-07T08:44:30.440Z,33.60
2019-04-07T08:45:47.148Z,33.70
2019-04-07T08:47:03.735Z,32.90
2019-04-07T08:48:20.870Z,31.50
2019-04-07T08:49:38.265Z,30.90
2019-04-07T08:50:57.276Z,30.50
2019-04-07T08:52:13.460Z,31.50
2019-04-07T08:53:30.645Z,32.10
2019-04-07T08:54:50.384Z,33.80
2019-04-07T08:56:08.190Z,33.10
2019-04-07T08:57:27.254Z,31.20
2019-04-07T08:58:42.562Z,30.60
2019-04-07T08:59:59.372Z,29.10
2019-04-07T09:01:16.634Z,28.80
2019-04-07T09:02:34.723Z,28.50
2019-04-07T09:03:51.909Z,27.80
2019-04-07T09:05:10.409Z,26.00
2019-04-07T09:06:28.456Z,26.10
2019-04-07T09:07:45.983Z,26.10
2019-04-07T09:09:07.213Z,26.00
2019-04-07T09:10:29.174Z,25.80
2019-04-07T09:11:46.949Z,25.10
2019-04-07T09:13:08.502Z,25.50
2019-04-07T09:14:24.771Z,25.50
2019-04-07T09:17:46.143Z,23.70
2019-04-07T09:21:40.359Z,23.90
2019-04-07T09:23:19.065Z,23.70
2019-04-07T09:24:54.425Z,23.50
2019-04-07T09:26:22.650Z,23.30
2019-04-07T09:28:21.254Z,23.60
2019-04-07T09:29:48.803Z,23.90
2019-04-07T09:31:34.964Z,24.10
2019-04-07T09:33:19.413Z,24.60
2019-04-07T09:34:55.848Z,24.00
2019-04-07T09:36:36.390Z,24.10
2019-04-07T09:38:12.302Z,24.30
2019-04-07T09:39:57.051Z,24.10
2019-04-07T09:41:23.115Z,23.40
2019-04-07T09:43:03.140Z,23.00
2019-04-07T09:44:24.465Z,25.00
2019-04-07T09:46:02.833Z,25.60
2019-04-07T09:47:53.916Z,27.00
2019-04-07T09:49:29.951Z,28.50
2019-04-07T09:51:07.292Z,29.30
2019-04-07T09:52:45.125Z,30.40
2019-04-07T09:54:22.219Z,30.00
2019-04-07T09:56:17.289Z,30.70
2019-04-07T09:57:57.031Z,31.30
2019-04-07T09:59:54.509Z,31.70
2019-04-07T10:01:25.286Z,33.50
2019-04-07T10:03:11.717Z,33.50
2019-04-07T10:05:03.833Z,32.60
2019-04-07T10:06:39.773Z,33.10
2019-04-07T10:08:17.712Z,32.80
2019-04-07T10:10:14.326Z,33.30
2019-04-07T10:11:46.213Z,32.30
2019-04-07T10:13:36.126Z,32.40
2019-04-07T10:15:36.165Z,33.00
2019-04-07T10:17:22.257Z,32.50
2019-04-07T10:18:57.693Z,33.20
2019-04-07T10:20:38.376Z,32.20
2019-04-07T10:22:34.107Z,32.30
2019-04-07T10:24:16.910Z,32.30
2019-04-07T10:27:54.468Z,31.20
2019-04-07T10:29:35.340Z,31.00
2019-04-07T10:31:24.619Z,30.70
2019-04-07T10:33:09.741Z,30.80
2019-04-07T10:34:46.002Z,30.60
2019-04-07T10:36:42.503Z,30.40
2019-04-07T10:38:17.965Z,29.50
2019-04-07T10:39:46.236Z,29.10
2019-04-07T10:41:42.818Z,28.70
2019-04-07T10:43:19.545Z,28.90
2019-04-07T10:45:08.995Z,28.70
2019-04-07T10:46:50.409Z,27.90
2019-04-07T10:48:26.866Z,28.10
2019-04-07T10:50:01.541Z,27.70
2019-04-07T10:51:45.840Z,27.60
2019-04-07T10:53:32.239Z,28.10
2019-04-07T10:55:03.698Z,27.30
2019-04-07T10:56:28.860Z,27.70
2019-04-07T10:58:17.018Z,27.70
2019-04-07T10:59:53.304Z,27.80
2019-04-07T11:01:36.244Z,28.60
2019-04-07T11:03:13.171Z,28.50
2019-04-07T11:04:55.203Z,29.40
2019-04-07T11:06:36.534Z,30.00
2019-04-07T11:08:11.949Z,29.90
2019-04-07T11:09:47.538Z,31.10
2019-04-07T11:11:23.492Z,32.60
2019-04-07T11:13:02.926Z,33.40
2019-04-07T11:14:46.720Z,33.30
2019-04-07T11:16:26.280Z,33.70
2019-04-07T11:18:08.760Z,34.20
2019-04-07T11:19:47.800Z,34.70
2019-04-07T11:21:44.111Z,35.60
2019-04-07T11:23:22.970Z,36.10
2019-04-07T11:25:00.084Z,36.50
2019-04-07T11:26:35.430Z,37.20
2019-04-07T11:28:11.195Z,37.20
2019-04-07T11:29:49.714Z,38.90
2019-04-07T11:31:25.575Z,38.90
2019-04-07T11:32:52.225Z,38.70
2019-04-07T11:34:19.385Z,38.30
2019-04-07T11:36:18.020Z,38.00
2019-04-07T11:37:58.450Z,37.80
2019-04-07T11:39:54.560Z,37.80
2019-04-07T11:41:31.721Z,36.80
2019-04-07T11:43:07.517Z,35.70
2019-04-07T11:44:46.724Z,35.30
2019-04-07T11:46:43.161Z,36.30
2019-04-07T11:48:19.386Z,36.80
2019-04-07T11:49:45.995Z,36.30
2019-04-07T11:51:41.223Z,36.00
2019-04-07T11:53:16.738Z,35.20
2019-04-07T11:54:49.188Z,35.40
2019-04-07T11:56:31.108Z,35.90
2019-04-07T11:58:14.351Z,36.30
2019-04-07T11:59:54.095Z,36.90
2019-04-07T12:01:49.700Z,36.70
2019-04-07T12:03:31.009Z,37.20
2019-04-07T12:05:09.839Z,38.00
2019-04-07T12:06:46.688Z,37.50
2019-04-07T12:08:36.131Z,37.70
2019-04-07T12:10:07.170Z,37.50
2019-04-07T12:11:42.598Z,38.50
2019-04-07T12:13:16.378Z,38.70
2019-04-07T12:15:12.949Z,38.40
2019-04-07T12:16:41.350Z,38.50
2019-04-07T12:18:23.736Z,38.70
2019-04-07T12:20:00.849Z,39.20
2019-04-07T12:21:37.532Z,38.70
2019-04-07T12:23:23.344Z,38.40
2019-04-07T12:25:14.674Z,38.10
2019-04-07T12:26:50.635Z,38.10
2019-04-07T12:28:33.454Z,38.30
2019-04-07T12:30:10.075Z,38.00
2019-04-07T12:31:46.487Z,37.60
2019-04-07T12:33:19.044Z,36.90
2019-04-07T12:35:08.245Z,36.60
2019-04-07T12:36:35.065Z,36.70
2019-04-07T12:38:12.319Z,37.20
2019-04-07T12:39:49.523Z,36.90
2019-04-07T12:41:42.577Z,37.10
2019-04-07T12:43:13.750Z,37.50
2019-04-07T12:44:53.889Z,36.40
2019-04-07T12:46:21.012Z,36.80
2019-04-07T12:48:03.466Z,36.50
2019-04-07T12:49:32.918Z,38.10
2019-04-07T12:51:06.288Z,39.00
2019-04-07T12:52:46.278Z,39.70
2019-04-07T12:54:35.277Z,39.70
2019-04-07T12:56:23.111Z,40.00
2019-04-07T12:57:58.433Z,40.30
2019-04-07T12:59:27.282Z,40.70
2019-04-07T13:01:09.818Z,40.30
2019-04-07T13:02:55.426Z,41.00
2019-04-07T13:04:40.779Z,40.70
2019-04-07T13:06:22.177Z,40.60
2019-04-07T13:08:01.570Z,40.70
2019-04-07T13:09:43.800Z,40.70
2019-04-07T13:11:11.785Z,40.10
2019-04-07T13:13:06.908Z,40.60
2019-04-07T13:14:46.016Z,40.20
2019-04-07T13:16:42.664Z,39.70
2019-04-07T13:18:13.516Z,40.50
2019-04-07T13:19:58.813Z,40.50
2019-04-07T13:21:40.726Z,40.50
2019-04-07T13:23:19.212Z,40.40
2019-04-07T13:24:45.458Z,40.30
2019-04-07T13:26:40.382Z,39.90
2019-04-07T13:28:11.408Z,40.20
2019-04-07T13:29:55.339Z,40.70
2019-04-07T13:31:22.848Z,40.60
2019-04-07T13:32:59.226Z,41.10
2019-04-07T13:34:52.233Z,41.00
2019-04-07T13:36:28.400Z,40.60
2019-04-07T13:38:05.486Z,40.70
2019-04-07T13:39:53.200Z,40.20
2019-04-07T13:41:42.366Z,41.00
2019-04-07T13:43:13.354Z,40.90
2019-04-07T13:45:14.055Z,40.70
2019-04-07T13:47:08.660Z,40.60
2019-04-07T13:48:52.160Z,40.50
2019-04-07T13:50:44.860Z,41.20
2019-04-07T13:52:22.209Z,40.70
2019-04-07T13:54:05.430Z,40.70
2019-04-07T13:55:43.668Z,40.60
2019-04-07T13:57:38.174Z,40.90
2019-04-07T13:59:04.059Z,41.50
2019-04-07T14:02:19.693Z,41.40
2019-04-07T14:04:02.463Z,41.40
2019-04-07T14:05:34.267Z,41.90
2019-04-07T14:07:30.676Z,41.90
2019-04-07T14:08:50.624Z,41.80
2019-04-07T14:10:13.155Z,42.20
2019-04-07T14:12:01.517Z,42.60
2019-04-07T14:13:14.875Z,42.70
2019-04-07T14:14:44.984Z,42.40
2019-04-07T14:16:09.476Z,43.00
2019-04-07T14:17:35.149Z,43.30
2019-04-07T14:18:59.468Z,43.90
2019-04-07T14:20:11.623Z,44.30
2019-04-07T14:21:40.336Z,44.00
2019-04-07T14:23:05.306Z,44.30
2019-04-07T14:24:46.074Z,45.00
2019-04-07T14:26:16.819Z,44.90
2019-04-07T14:27:38.370Z,45.20
2019-04-07T14:29:00.984Z,45.70
2019-04-07T14:30:26.843Z,46.30
2019-04-07T14:31:51.669Z,45.70
2019-04-07T14:33:15.466Z,45.70
2019-04-07T14:34:27.308Z,45.60
2019-04-07T14:35:47.777Z,45.30
2019-04-07T14:37:15.298Z,45.40
2019-04-07T14:38:41.285Z,45.20
2019-04-07T14:40:05.668Z,45.60
2019-04-07T14:41:38.832Z,45.60
2019-04-07T14:43:05.685Z,45.60
2019-04-07T14:44:26.172Z,46.40
2019-04-07T14:45:40.636Z,46.60
2019-04-07T14:47:08.727Z,46.40
2019-04-07T14:48:37.513Z,46.60
2019-04-07T14:50:11.900Z,46.40
2019-04-07T14:51:46.081Z,46.20
2019-04-07T14:53:09.099Z,46.30
2019-04-07T14:54:27.136Z,46.30
2019-04-07T14:55:50.912Z,46.00
2019-04-07T14:57:30.934Z,45.90
2019-04-07T14:58:58.192Z,46.10
2019-04-07T15:00:23.587Z,45.90
2019-04-07T15:01:45.761Z,45.90
2019-04-07T15:02:51.064Z,46.10
2019-04-07T15:03:56.500Z,46.30
2019-04-07T15:05:07.177Z,46.50
2019-04-07T15:06:12.296Z,46.50
2019-04-07T15:07:57.904Z,46.40
2019-04-07T15:09:16.566Z,46.40
2019-04-07T15:10:28.294Z,46.40
2019-04-07T15:11:43.373Z,46.70
2019-04-07T15:12:52.425Z,46.60
2019-04-07T15:14:00.371Z,46.60
2019-04-07T15:15:08.808Z,46.50
2019-04-07T15:16:11.551Z,46.80
2019-04-07T15:17:17.654Z,46.90
2019-04-07T15:18:22.999Z,47.00
2019-04-07T15:19:28.818Z,47.00
2019-04-07T15:20:34.428Z,47.00
2019-04-07T15:21:40.125Z,47.10
2019-04-07T15:22:47.280Z,46.70
2019-04-07T15:23:52.976Z,46.60
2019-04-07T15:24:59.192Z,47.00
2019-04-07T15:26:05.326Z,47.10
2019-04-07T15:27:11.270Z,47.00
2019-04-07T15:28:17.407Z,46.80
2019-04-07T15:29:23.217Z,46.60
2019-04-07T15:30:28.593Z,46.80
2019-04-07T15:31:33.762Z,46.70
2019-04-07T15:32:39.478Z,46.80
2019-04-07T15:33:46.633Z,46.30
2019-04-07T15:34:52.611Z,46.10
2019-04-07T15:35:58.823Z,45.80
2019-04-07T15:37:04.428Z,45.90
2019-04-07T15:38:09.813Z,45.90
2019-04-07T15:39:15.141Z,45.70
2019-04-07T15:40:20.412Z,45.30
2019-04-07T15:41:25.819Z,45.30
2019-04-07T15:42:38.787Z,45.50
2019-04-07T15:43:38.331Z,45.80
2019-04-07T15:44:43.743Z,46.10
2019-04-07T15:45:48.905Z,46.40
2019-04-07T15:46:54.569Z,46.70
2019-04-07T15:48:00.677Z,46.60
2019-04-07T15:49:06.833Z,46.50
2019-04-07T15:50:13.789Z,46.70
2019-04-07T15:51:20.149Z,46.60
2019-04-07T15:52:25.276Z,46.50
2019-04-07T15:53:30.905Z,46.30
2019-04-07T15:54:37.066Z,46.10
2019-04-07T15:55:51.625Z,45.90
2019-04-07T15:56:51.568Z,45.70
2019-04-07T15:57:58.371Z,46.20
2019-04-07T15:59:03.667Z,45.70
2019-04-07T16:00:10.029Z,45.60
2019-04-07T16:01:16.073Z,45.40
2019-04-07T16:02:21.409Z,45.70
2019-04-07T16:03:26.645Z,45.60
2019-04-07T16:04:32.008Z,45.90
2019-04-07T16:05:42.245Z,45.90
2019-04-07T16:06:47.119Z,45.90
2019-04-07T16:07:53.645Z,46.00
2019-04-07T16:09:00.198Z,46.10
2019-04-07T16:10:10.023Z,46.10
2019-04-07T16:11:16.594Z,46.00
2019-04-07T16:12:22.967Z,46.10
2019-04-07T16:13:29.198Z,46.20
2019-04-07T16:14:35.189Z,46.50
2019-04-07T16:15:43.590Z,46.40
2019-04-07T16:16:47.534Z,46.20
2019-04-07T16:17:52.744Z,46.70
2019-04-07T16:18:57.878Z,46.80
2019-04-07T16:20:03.729Z,47.10
2019-04-07T16:21:10.323Z,47.30
2019-04-07T16:22:16.861Z,47.30
2019-04-07T16:23:22.279Z,47.40
2019-04-07T16:24:29.261Z,47.50
2019-04-07T16:25:34.521Z,47.50
2019-04-07T16:26:39.939Z,47.70
2019-04-07T16:27:45.737Z,48.10
2019-04-07T16:28:51.920Z,48.10
2019-04-07T16:29:58.020Z,48.10
2019-04-07T16:31:03.353Z,48.30
2019-04-07T16:32:09.314Z,48.20
2019-04-07T16:33:15.228Z,47.90
2019-04-07T16:34:20.691Z,47.70
2019-04-07T16:35:26.365Z,47.80
2019-04-07T16:36:32.464Z,48.10
2019-04-07T16:37:37.733Z,48.00
2019-04-07T16:38:43.194Z,48.10
2019-04-07T16:39:48.351Z,47.90
2019-04-07T16:40:53.869Z,47.80
2019-04-07T16:41:59.112Z,47.60
2019-04-07T16:43:11.590Z,47.30
2019-04-07T16:44:11.833Z,47.50
2019-04-07T16:45:18.000Z,47.10
2019-04-07T16:46:24.694Z,47.20
2019-04-07T16:47:34.592Z,47.10
2019-04-07T16:48:40.075Z,47.40
2019-04-07T16:49:46.682Z,47.70
2019-04-07T16:50:54.776Z,47.20
2019-04-07T16:52:01.256Z,47.40
2019-04-07T16:53:07.664Z,47.40
2019-04-07T16:54:13.243Z,47.60
2019-04-07T16:55:35.955Z,47.50
2019-04-07T16:56:41.410Z,47.60
2019-04-07T16:57:46.664Z,47.70
2019-04-07T16:58:52.275Z,47.80
2019-04-07T16:59:58.308Z,47.80
2019-04-07T17:01:04.549Z,47.70